Station: Mount Magnet Airport  

  Atmospheric Gas Attenuation - ITU Rec 676-11   ----------------- dB/100km -----------------
Date Time Temp RH % AH g/m3 Dew Point Wind Direction Speed kph Gust kph Barometer mB Rainfall Since 9am 24GHz 47GHz 76GHz 122GHz 134GHz 241GHz
08/05 09:20 17 48 6.95 5.9 24 30 1027.8 0 15.9 23.0 32.7 85.2 75.2 257.3
08/05 09:10 16.4 49 6.84 5.7 26 30 1027.8 0 15.7 23.0 32.5 84.8 74.4 254.5
08/05 09:00 15.9 51 6.91 5.8 30 41 1027.7 0 15.9 23.2 33.0 86.0 75.7 259.1
08/05 08:50 15.6 52 6.92 5.8 30 37 1027.8 0 15.9 23.3 33.1 86.4 76.1 260.5
08/05 08:40 15.1 53 6.84 5.6 26 32 1027.9 0 15.8 23.3 33.0 86.2 75.6 258.7
08/05 08:30 14.7 55 6.92 5.8 24 35 1027.8 0 16.0 23.5 33.5 87.4 77.0 263.4
08/05 08:20 14.4 56 6.92 5.7 19 24 1027.9 0 16.0 23.6 33.6 87.7 77.3 264.4
08/05 08:10 13.7 58 6.87 5.6 20 24 1027.9 0 15.9 23.7 33.7 88.0 77.3 264.5
08/05 08:00 13.3 59 6.82 5.5 20 26 1027.7 0 15.8 23.8 33.7 87.9 77.1 263.6
08/05 07:50 13 60 6.8 5.4 17 20 1027.8 0 15.8 23.8 33.7 88.0 77.1 263.7
08/05 07:40 12.6 62 6.86 5.5 19 20 1027.7 0 15.9 24.0 34.1 89.1 78.3 267.7
08/05 07:30 12.2 63 6.8 5.4 17 22 1027.6 0 15.8 24.0 34.1 88.9 77.9 266.4
08/05 07:20 12 64 6.82 5.4 17 19 1027.6 0 15.9 24.1 34.2 89.3 78.4 267.9
08/05 07:10 11.7 65 6.8 5.3 15 17 1027.5 0 15.8 24.1 34.3 89.4 78.4 268.0
08/05 07:00 11.4 66 6.78 5.3 13 19 1027.2 0 15.8 24.2 34.3 89.5 78.4 268.0
08/05 06:50 11.3 66 6.73 5.2 13 15 1027.2 0 15.7 24.1 34.2 89.1 77.9 266.1
08/05 06:40 11.3 66 6.73 5.2 13 15 1027.1 0 15.7 24.1 34.2 89.1 77.9 266.1
08/05 06:30 11.3 66 6.73 5.2 13 17 1027 0 15.7 24.1 34.1 89.1 77.9 266.1
08/05 06:20 11.5 65 6.71 5.2 15 17 1027.1 0 15.7 24.0 34.0 88.7 77.4 264.5
08/05 06:10 11.5 65 6.71 5.2 13 15 1027 0 15.7 24.0 34.0 88.7 77.4 264.5
08/05 06:00 11.6 64 6.65 5 15 20 1026.9 0 15.5 23.9 33.7 87.9 76.6 261.5
08/05 05:50 11.7 64 6.69 5.1 13 15 1027 0 15.6 23.9 33.8 88.3 77.0 263.0
08/05 05:40 11.9 63 6.67 5.1 17 19 1026.9 0 15.5 23.9 33.7 87.8 76.5 261.4
08/05 05:30 11.9 63 6.67 5.1 15 20 1026.8 0 15.5 23.9 33.7 87.8 76.5 261.4
08/05 05:20 12 62 6.61 5 17 19 1026.9 0 15.4 23.7 33.4 87.1 75.7 258.4
08/05 05:10 12.1 62 6.65 5 17 19 1026.8 0 15.5 23.8 33.5 87.4 76.1 259.8
08/05 05:00 12.3 61 6.62 5 17 22 1026.5 0 15.4 23.7 33.3 86.8 75.5 257.8
08/05 04:50 12.4 60 6.56 4.9 19 22 1026.6 0 15.3 23.5 33.0 86.1 74.6 254.8
08/05 04:40 12.5 60 6.6 5 19 22 1026.6 0 15.4 23.6 33.1 86.4 75.0 256.3
08/05 04:30 12.6 60 6.64 5.1 17 26 1026.3 0 15.5 23.6 33.2 86.7 75.4 257.7
08/05 04:20 12.7 59 6.57 4.9 13 15 1026.5 0 15.3 23.5 32.9 85.9 74.5 254.3
08/05 04:10 12.9 58 6.54 4.8 17 19 1026.5 0 15.2 23.4 32.7 85.4 73.9 252.3
08/05 04:00 13.1 58 6.62 5 15 19 1026.3 0 15.4 23.4 32.9 85.9 74.7 255.2
08/05 03:50 13.6 56 6.59 5 17 19 1026.4 0 15.3 23.3 32.6 85.1 73.9 252.3
08/05 03:40 14.1 54 6.55 4.9 19 22 1026.5 0 15.2 23.1 32.3 84.2 72.9 249.0
08/05 03:30 14.3 54 6.63 5.1 20 28 1026.3 0 15.4 23.2 32.5 84.8 73.7 251.8
08/05 03:20 14.3 54 6.63 5.1 19 22 1026.4 0 15.4 23.2 32.5 84.8 73.7 251.8
08/05 03:10 14.5 53 6.59 5 24 28 1026.4 0 15.3 23.1 32.3 84.2 73.0 249.5
08/05 03:00 14.6 53 6.63 5.1 20 28 1026.2 0 15.4 23.1 32.4 84.4 73.4 250.9
08/05 02:50 14.6 53 6.63 5.1 19 22 1026.4 0 15.4 23.1 32.4 84.5 73.4 250.9
08/05 02:40 14.7 53 6.67 5.2 20 26 1026.4 0 15.4 23.1 32.5 84.8 73.8 252.3
08/05 02:30 14.8 52 6.59 5.1 20 26 1026.3 0 15.3 23.0 32.2 83.9 72.7 248.5
08/05 02:20 14.9 52 6.63 5.1 20 24 1026.4 0 15.3 23.0 32.3 84.2 73.1 250.0
08/05 02:10 14.8 52 6.59 5.1 15 20 1026.5 0 15.3 23.0 32.2 83.9 72.8 248.6
08/05 02:00 15 52 6.67 5.2 22 28 1026.3 0 15.4 23.0 32.4 84.4 73.5 251.3
08/05 01:50 15.1 51 6.58 5 19 24 1026.5 0 15.2 22.9 32.0 83.5 72.4 247.2
08/05 01:40 15.1 51 6.58 5 19 20 1026.5 0 15.2 22.9 32.0 83.5 72.4 247.2
08/05 01:30 15.2 51 6.62 5.1 20 28 1026.3 0 15.3 22.9 32.1 83.7 72.7 248.6
08/05 01:20 15.2 51 6.62 5.1 19 22 1026.6 0 15.3 22.9 32.1 83.8 72.8 248.7
08/05 01:10 15.4 51 6.7 5.3 20 24 1026.6 0 15.5 23.0 32.3 84.3 73.5 251.4
08/05 01:00 15.3 51 6.66 5.2 19 26 1026.4 0 15.4 23.0 32.2 84.0 73.1 250.0
08/05 00:50 15.4 51 6.7 5.3 20 24 1026.6 0 15.5 23.0 32.3 84.3 73.5 251.4
08/05 00:40 15.6 50 6.65 5.2 24 30 1026.6 0 15.4 22.9 32.1 83.6 72.8 248.7
08/05 00:30 15.7 50 6.69 5.3 22 32 1026.4 0 15.4 22.9 32.2 83.9 73.1 250.0
08/05 00:20 15.9 50 6.77 5.5 28 35 1026.5 0 15.6 23.0 32.4 84.5 73.9 252.8
08/05 00:10 15.9 50 6.77 5.5 26 28 1026.5 0 15.6 23.0 32.4 84.5 73.9 252.8
08/05 00:00 16 49 6.68 5.3 24 30 1026.3 0 15.4 22.8 32.0 83.5 72.7 248.7
07/05 23:50 16 49 6.68 5.3 19 24 1026.5 0 15.4 22.8 32.0 83.5 72.8 248.7
07/05 23:40 16.1 48 6.58 5.1 22 28 1026.5 0 15.2 22.6 31.6 82.4 71.5 244.2
07/05 23:30 16.3 48 6.66 5.3 24 35 1026.3 0 15.4 22.7 31.8 83.0 72.2 246.9
07/05 23:20 16.4 47 6.56 5.1 26 32 1026.5 0 15.1 22.5 31.4 81.9 71.0 242.5
07/05 23:10 16.5 47 6.6 5.2 28 33 1026.4 0 15.2 22.6 31.5 82.2 71.3 243.8
07/05 23:00 16.7 47 6.68 5.3 26 33 1026.2 0 15.4 22.6 31.7 82.8 72.1 246.5
07/05 22:50 16.7 46 6.54 5 24 30 1026.4 0 15.1 22.4 31.2 81.4 70.4 240.7
07/05 22:40 16.8 46 6.58 5.1 24 26 1026.4 0 15.2 22.5 31.3 81.7 70.8 242.1
07/05 22:30 16.8 45 6.43 4.8 24 35 1026.2 0 14.9 22.2 30.8 80.3 69.0 235.8
07/05 22:20 16.9 44 6.33 4.6 22 26 1026.3 0 14.6 22.1 30.4 79.2 67.8 231.4
07/05 22:10 17 44 6.37 4.7 17 19 1026.3 0 14.7 22.1 30.5 79.5 68.2 232.8
07/05 22:00 17.2 43 6.3 4.5 20 28 1026 0 14.6 22.0 30.2 78.6 67.2 229.3
07/05 21:50 17.4 42 6.22 4.4 20 24 1026 0 14.4 21.8 29.8 77.7 66.1 225.4
07/05 21:40 17.5 42 6.26 4.5 19 22 1026 0 14.5 21.8 29.9 78.0 66.5 226.8
07/05 21:30 17.6 42 6.3 4.6 20 28 1025.8 0 14.5 21.9 30.0 78.2 66.8 228.1
07/05 21:20 17.8 41 6.22 4.4 24 28 1025.8 0 14.4 21.7 29.7 77.3 65.7 224.3
07/05 21:10 17.8 41 6.22 4.4 20 26 1025.7 0 14.4 21.7 29.7 77.3 65.7 224.3
07/05 21:00 17.9 41 6.26 4.5 22 30 1025.6 0 14.5 21.7 29.8 77.5 66.1 225.6
07/05 20:50 17.9 40 6.11 4.1 20 24 1025.5 0 14.1 21.5 29.2 76.1 64.4 219.5
07/05 20:40 18.1 40 6.18 4.3 24 30 1025.5 0 14.3 21.6 29.4 76.6 65.0 221.8
07/05 20:30 18.1 39 6.03 3.9 20 30 1025.3 0 14.0 21.3 28.9 75.2 63.3 215.7
07/05 20:20 18.2 39 6.06 4 17 19 1025.4 0 14.0 21.4 29.0 75.4 63.6 216.7
07/05 20:10 18.5 38 6.01 3.9 20 24 1025.3 0 13.9 21.2 28.7 74.6 62.7 213.9
07/05 20:00 18.6 37 5.89 3.6 20 28 1025.1 0 13.7 21.0 28.2 73.4 61.3 208.8
07/05 19:50 18.7 37 5.92 3.7 20 22 1025.1 0 13.7 21.0 28.3 73.6 61.6 209.8
07/05 19:40 18.7 37 5.92 3.7 20 24 1025.1 0 13.7 21.0 28.3 73.6 61.6 209.8
07/05 19:30 18.9 36 5.83 3.5 20 28 1024.8 0 13.5 20.9 27.9 72.6 60.4 205.7
07/05 19:20 19 36 5.87 3.6 20 24 1024.9 0 13.6 20.9 28.0 72.9 60.8 207.0
07/05 19:10 19.1 36 5.9 3.7 19 22 1024.9 0 13.7 20.9 28.1 73.1 61.0 207.9
07/05 19:00 19.2 35 5.77 3.4 17 20 1024.7 0 13.4 20.7 27.6 71.8 59.5 202.6
07/05 18:50 19.4 34 5.67 3.2 15 17 1024.6 0 13.2 20.5 27.2 70.7 58.2 198.2
07/05 18:40 19.6 33 5.57 2.9 15 17 1024.5 0 13.0 20.3 26.8 69.6 57.0 193.8
07/05 18:30 19.9 32 5.5 2.7 19 22 1024.1 0 12.8 20.2 26.5 68.7 56.0 190.3
07/05 18:20 20.1 32 5.56 2.9 20 24 1024.2 0 12.9 20.2 26.6 69.1 56.5 192.2
07/05 18:10 20.3 31 5.45 2.6 22 26 1024 0 12.7 20.0 26.2 68.0 55.2 187.5
07/05 18:00 20.3 31 5.45 2.6 19 28 1023.8 0 12.7 20.0 26.2 67.9 55.2 187.5
07/05 17:50 20.6 31 5.55 2.9 22 26 1023.7 0 12.9 20.1 26.4 68.6 56.0 190.6
07/05 17:40 20.8 30 5.43 2.6 22 24 1023.7 0 12.6 19.9 25.9 67.4 54.6 185.6
07/05 17:30 20.9 30 5.46 2.7 20 28 1023.5 0 12.7 19.9 26.0 67.5 54.9 186.4
07/05 17:20 21.3 30 5.59 3 26 30 1023.6 0 12.9 20.0 26.3 68.3 56.0 190.5
07/05 17:10 21.5 30 5.66 3.2 28 35 1023.6 0 13.1 20.0 26.5 68.8 56.6 192.7
07/05 17:00 21.8 28 5.37 2.5 22 30 1023.4 0 12.5 19.6 25.4 66.0 53.3 181.1
07/05 16:50 21.9 27 5.21 2.1 28 33 1023.5 0 12.1 19.4 24.9 64.6 51.6 174.9

Last Refresh: 08-May-2026 11:03:37

Bureau of Meteorology